Time;durP1;ratioP1;P1;durP2;ratioP2;P2;SDS_P1;SDS_P2;PMS_P1;PMS_P2;Temp;Humidity;BMP_temperature;BMP_pressure;BME280_temperature;BME280_humidity;BME280_pressure;Samples;Min_cycle;Max_cycle;Signal;HPM_P1;HPM_P2
2022/12/09 00:01:58;;;;;;;44.00;27.50;;;;;;;;;;4852214;29;20472;-93
2022/12/09 00:04:24;;;;;;;35.00;22.13;;;;;;;;;;4852648;29;20038;-94
2022/12/09 00:13:01;;;;;;;40.63;24.17;;;;;;;;;;4864634;23;20391;-95
2022/12/09 00:15:27;;;;;;;44.03;26.67;;;;;;;;;;4847184;29;20038;-95
2022/12/09 00:17:53;;;;;;;46.20;28.20;;;;;;;;;;4849866;29;20125;-94
2022/12/09 00:20:19;;;;;;;35.97;22.92;;;;;;;;;;4848352;29;20034;-94
2022/12/09 00:22:47;;;;;;;42.03;26.35;;;;;;;;;;4846440;29;20029;-93
2022/12/09 00:25:13;;;;;;;34.83;21.65;;;;;;;;;;4845356;29;20440;-95
2022/12/09 00:28:18;;;;;;;43.25;26.42;;;;;;;;;;4845588;29;20056;-95
2022/12/09 00:30:50;;;;;;;46.08;26.95;;;;;;;;;;4825771;29;20147;-95
2022/12/09 00:33:16;;;;;;;44.25;26.33;;;;;;;;;;4811036;29;20027;-95
2022/12/09 00:35:44;;;;;;;43.42;25.73;;;;;;;;;;4833663;29;20041;-94
2022/12/09 00:38:11;;;;;;;37.22;22.85;;;;;;;;;;4850417;29;20025;-95
2022/12/09 00:40:37;;;;;;;37.20;23.55;;;;;;;;;;4850184;29;20105;-95
2022/12/09 00:43:03;;;;;;;41.17;25.10;;;;;;;;;;4849387;29;20034;-94
2022/12/09 00:45:29;;;;;;;39.80;24.42;;;;;;;;;;4852984;29;20033;-93
2022/12/09 00:47:59;;;;;;;44.05;26.35;;;;;;;;;;4852938;29;20036;-93
2022/12/09 00:53:20;;;;;;;35.28;22.17;;;;;;;;;;4869880;29;20121;-95
2022/12/09 00:56:28;;;;;;;36.75;23.20;;;;;;;;;;4893394;23;20051;-96
2022/12/09 01:01:31;;;;;;;35.55;22.60;;;;;;;;;;5081712;23;20061;-96
2022/12/09 01:03:57;;;;;;;36.05;22.45;;;;;;;;;;4847320;29;20030;-95
2022/12/09 01:06:24;;;;;;;36.80;24.73;;;;;;;;;;4850388;29;20129;-95
2022/12/09 01:08:51;;;;;;;38.72;23.65;;;;;;;;;;4852054;29;20029;-94
2022/12/09 01:11:19;;;;;;;35.20;23.08;;;;;;;;;;4852957;29;20035;-94
2022/12/09 01:13:46;;;;;;;37.50;23.00;;;;;;;;;;4832863;29;20053;-95
2022/12/09 01:16:14;;;;;;;34.83;22.67;;;;;;;;;;4848397;29;20041;-95
2022/12/09 01:18:40;;;;;;;33.95;21.52;;;;;;;;;;4847809;29;20034;-95
2022/12/09 01:21:06;;;;;;;34.67;21.25;;;;;;;;;;4850420;29;20064;-95
2022/12/09 01:23:33;;;;;;;35.63;22.65;;;;;;;;;;4847125;29;20492;-95
2022/12/09 01:26:08;;;;;;;35.45;22.88;;;;;;;;;;4847842;29;20026;-96
2022/12/09 01:28:35;;;;;;;41.80;25.17;;;;;;;;;;4870141;29;20029;-95
2022/12/09 01:31:11;;;;;;;39.47;23.25;;;;;;;;;;4859899;29;20097;-95
2022/12/09 01:33:40;;;;;;;40.40;24.77;;;;;;;;;;4862274;29;20042;-94
2022/12/09 01:36:09;;;;;;;40.90;25.33;;;;;;;;;;4865919;29;20027;-93
2022/12/09 01:38:35;;;;;;;32.60;22.23;;;;;;;;;;4864650;29;20029;-93
2022/12/09 01:41:13;;;;;;;38.17;24.55;;;;;;;;;;4865870;29;20036;-92
2022/12/09 01:43:42;;;;;;;35.25;22.58;;;;;;;;;;4865436;29;20042;-94
2022/12/09 01:46:31;;;;;;;42.45;26.38;;;;;;;;;;4864345;29;20040;-92
2022/12/09 02:07:55;;;;;;;34.33;22.60;;;;;;;;;;4894365;29;20116;-93
2022/12/09 02:10:22;;;;;;;39.25;24.35;;;;;;;;;;4876481;29;20108;-95
2022/12/09 02:12:48;;;;;;;40.13;24.27;;;;;;;;;;4878010;29;20029;-95
2022/12/09 02:15:21;;;;;;;37.20;23.13;;;;;;;;;;4897240;29;20524;-96
2022/12/09 02:17:56;;;;;;;36.70;22.58;;;;;;;;;;4881444;29;20017;-93
2022/12/09 02:20:41;;;;;;;34.80;22.88;;;;;;;;;;4881908;29;20029;-93
2022/12/09 02:23:11;;;;;;;37.85;22.83;;;;;;;;;;4878430;29;20037;-95
2022/12/09 02:25:47;;;;;;;41.10;23.85;;;;;;;;;;4871684;29;20122;-94
2022/12/09 02:28:29;;;;;;;38.53;23.42;;;;;;;;;;4867566;29;20130;-95
2022/12/09 02:31:04;;;;;;;36.90;22.85;;;;;;;;;;4867797;29;20041;-95
2022/12/09 02:33:38;;;;;;;34.00;22.10;;;;;;;;;;4868589;29;20053;-95
2022/12/09 02:36:08;;;;;;;33.45;22.15;;;;;;;;;;4869560;29;20033;-95
2022/12/09 02:38:35;;;;;;;39.00;24.52;;;;;;;;;;4870689;29;20034;-96
2022/12/09 02:41:11;;;;;;;34.60;21.73;;;;;;;;;;4869482;29;20116;-95
2022/12/09 02:43:43;;;;;;;38.95;23.90;;;;;;;;;;4870299;29;20066;-95
2022/12/09 02:46:10;;;;;;;39.60;25.63;;;;;;;;;;4870276;29;20041;-94
2022/12/09 02:57:36;;;;;;;33.47;22.02;;;;;;;;;;4884042;23;20161;-94
2022/12/09 03:00:04;;;;;;;37.47;24.77;;;;;;;;;;4848534;29;20507;-96
2022/12/09 03:02:36;;;;;;;36.95;25.00;;;;;;;;;;4849148;29;20479;-95
2022/12/09 03:05:05;;;;;;;39.72;26.08;;;;;;;;;;4848053;29;20029;-95
2022/12/09 03:07:47;;;;;;;39.28;24.80;;;;;;;;;;4850066;29;20105;-96
2022/12/09 03:10:20;;;;;;;37.17;24.33;;;;;;;;;;4848749;29;20037;-95
2022/12/09 03:12:49;;;;;;;37.90;23.98;;;;;;;;;;4848281;29;20029;-95
2022/12/09 03:15:18;;;;;;;38.55;24.02;;;;;;;;;;4848045;29;20041;-93
2022/12/09 03:17:44;;;;;;;43.63;26.90;;;;;;;;;;4856967;29;20040;-92
2022/12/09 03:20:19;;;;;;;39.72;25.08;;;;;;;;;;4862461;29;20038;-93
2022/12/09 03:22:52;;;;;;;39.67;24.50;;;;;;;;;;4851870;29;20029;-96
2022/12/09 03:25:24;;;;;;;47.33;27.98;;;;;;;;;;4849605;29;20033;-94
2022/12/09 03:27:57;;;;;;;42.90;24.77;;;;;;;;;;4858436;29;20057;-94
2022/12/09 03:33:33;;;;;;;45.67;28.17;;;;;;;;;;4876548;24;20109;-94
2022/12/09 03:39:33;;;;;;;47.13;27.73;;;;;;;;;;4860919;29;20045;-94
2022/12/09 03:42:23;;;;;;;39.67;23.67;;;;;;;;;;4853616;29;20037;-96
2022/12/09 03:45:23;;;;;;;45.20;24.98;;;;;;;;;;4873350;29;20158;-92
2022/12/09 03:47:52;;;;;;;46.75;28.27;;;;;;;;;;4844324;29;20061;-94
2022/12/09 03:50:26;;;;;;;58.95;35.05;;;;;;;;;;4859908;29;20105;-96
2022/12/09 03:53:23;;;;;;;49.75;31.33;;;;;;;;;;4856996;29;20025;-95
2022/12/09 03:56:39;;;;;;;46.83;29.65;;;;;;;;;;4859155;29;20061;-96
2022/12/09 03:59:10;;;;;;;47.83;29.10;;;;;;;;;;4869951;29;20033;-96
2022/12/09 04:01:38;;;;;;;41.42;25.40;;;;;;;;;;4854406;29;20033;-94
2022/12/09 04:04:18;;;;;;;47.55;30.48;;;;;;;;;;4856327;29;20030;-95
2022/12/09 04:06:52;;;;;;;48.55;28.90;;;;;;;;;;4854222;29;20026;-93
2022/12/09 04:09:18;;;;;;;39.83;25.27;;;;;;;;;;4851645;29;20077;-93
2022/12/09 04:11:44;;;;;;;47.83;28.90;;;;;;;;;;4853897;29;20036;-94
2022/12/09 04:14:12;;;;;;;41.83;27.13;;;;;;;;;;4854607;29;20033;-94
2022/12/09 04:16:38;;;;;;;50.20;28.00;;;;;;;;;;4851808;29;20048;-96
2022/12/09 04:19:09;;;;;;;44.10;27.25;;;;;;;;;;4851071;29;20029;-95
2022/12/09 04:21:45;;;;;;;40.05;25.58;;;;;;;;;;4854961;29;20037;-94
2022/12/09 04:24:12;;;;;;;44.80;28.42;;;;;;;;;;4872468;29;20026;-93
2022/12/09 04:26:38;;;;;;;41.85;27.23;;;;;;;;;;4856536;29;20262;-95
2022/12/09 04:32:24;;;;;;;49.88;31.00;;;;;;;;;;5522733;23;20028;-92
2022/12/09 04:34:50;;;;;;;42.53;26.67;;;;;;;;;;4810225;29;20049;-95
2022/12/09 04:37:20;;;;;;;38.25;25.02;;;;;;;;;;4808870;29;20400;-95
2022/12/09 04:40:23;;;;;;;43.17;27.38;;;;;;;;;;4832182;29;20061;-93
2022/12/09 04:42:53;;;;;;;50.13;30.92;;;;;;;;;;4814301;29;20121;-95
2022/12/09 04:45:21;;;;;;;41.45;26.42;;;;;;;;;;4818334;29;20034;-94
2022/12/09 04:47:50;;;;;;;44.45;28.35;;;;;;;;;;4814886;29;20476;-96
2022/12/09 04:50:16;;;;;;;45.40;26.85;;;;;;;;;;4815635;29;20045;-94
2022/12/09 04:52:42;;;;;;;46.60;28.20;;;;;;;;;;4812961;29;20026;-96
2022/12/09 04:55:09;;;;;;;45.47;28.77;;;;;;;;;;4815531;29;20046;-93
2022/12/09 04:57:56;;;;;;;49.47;31.15;;;;;;;;;;4816284;29;20125;-96
2022/12/09 05:00:26;;;;;;;45.13;28.33;;;;;;;;;;4817055;29;20014;-94
2022/12/09 05:02:57;;;;;;;44.15;28.15;;;;;;;;;;4813797;29;20030;-95
2022/12/09 05:05:28;;;;;;;53.33;32.10;;;;;;;;;;4831755;29;20030;-92
2022/12/09 05:07:56;;;;;;;42.80;28.45;;;;;;;;;;4817724;29;20042;-96
2022/12/09 05:10:25;;;;;;;48.78;30.00;;;;;;;;;;4818598;29;20050;-96
2022/12/09 05:12:52;;;;;;;43.90;26.52;;;;;;;;;;4813022;29;20038;-96
2022/12/09 05:15:18;;;;;;;42.45;27.25;;;;;;;;;;4815191;29;20042;-95
2022/12/09 05:17:46;;;;;;;50.17;31.50;;;;;;;;;;4830012;29;20033;-95
2022/12/09 05:20:12;;;;;;;46.08;29.30;;;;;;;;;;4815463;29;20133;-95
2022/12/09 05:22:54;;;;;;;42.72;27.83;;;;;;;;;;4815180;29;20062;-96
2022/12/09 05:25:20;;;;;;;48.38;31.13;;;;;;;;;;4834657;29;20083;-93
2022/12/09 05:28:06;;;;;;;51.63;31.98;;;;;;;;;;4814393;29;20090;-95
2022/12/09 05:39:29;;;;;;;52.17;31.58;;;;;;;;;;4879728;23;20056;-95
2022/12/09 05:42:01;;;;;;;60.25;34.00;;;;;;;;;;4866612;29;20097;-95
2022/12/09 05:44:28;;;;;;;50.92;31.27;;;;;;;;;;4856705;29;20034;-93
2022/12/09 05:46:54;;;;;;;47.35;30.45;;;;;;;;;;4856889;29;20026;-94
2022/12/09 05:49:20;;;;;;;49.78;31.90;;;;;;;;;;4856321;29;20042;-91
2022/12/09 05:51:54;;;;;;;72.50;38.70;;;;;;;;;;4851295;29;20105;-96
2022/12/09 05:54:20;;;;;;;57.72;34.42;;;;;;;;;;4857569;29;20030;-96
2022/12/09 05:56:50;;;;;;;68.57;38.45;;;;;;;;;;4852356;29;20109;-96
2022/12/09 05:59:16;;;;;;;53.13;33.00;;;;;;;;;;4853698;29;20021;-96
2022/12/09 06:01:42;;;;;;;64.70;36.17;;;;;;;;;;4851342;29;20042;-96
2022/12/09 06:04:08;;;;;;;74.50;40.30;;;;;;;;;;4850340;29;20021;-95
2022/12/09 06:06:35;;;;;;;49.17;31.50;;;;;;;;;;4849295;29;20082;-96
2022/12/09 06:09:01;;;;;;;54.13;32.65;;;;;;;;;;4851065;29;20033;-95
2022/12/09 06:11:27;;;;;;;60.80;34.25;;;;;;;;;;4851043;29;20062;-95
2022/12/09 06:13:54;;;;;;;52.00;31.73;;;;;;;;;;4850301;29;20112;-95
2022/12/09 06:16:20;;;;;;;51.13;31.38;;;;;;;;;;4853774;29;20038;-93
2022/12/09 06:18:50;;;;;;;71.60;39.42;;;;;;;;;;4853278;29;20053;-93
2022/12/09 06:21:17;;;;;;;59.67;34.80;;;;;;;;;;4847935;29;20062;-93
2022/12/09 06:23:43;;;;;;;57.83;35.47;;;;;;;;;;4848906;29;20125;-92
2022/12/09 06:26:17;;;;;;;65.82;39.20;;;;;;;;;;4848914;29;20066;-93
2022/12/09 06:28:44;;;;;;;106.93;50.00;;;;;;;;;;4864016;29;20033;-96
2022/12/09 06:31:10;;;;;;;57.05;34.17;;;;;;;;;;4848030;29;20049;-95
2022/12/09 06:33:36;;;;;;;91.68;45.90;;;;;;;;;;4847770;29;20026;-95
2022/12/09 06:36:03;;;;;;;71.70;40.70;;;;;;;;;;4854573;29;20021;-94
2022/12/09 06:38:29;;;;;;;61.75;36.58;;;;;;;;;;4856278;29;20117;-95
2022/12/09 06:40:56;;;;;;;89.25;44.88;;;;;;;;;;4849933;29;20046;-96
2022/12/09 06:43:22;;;;;;;96.05;47.53;;;;;;;;;;4847028;29;20089;-96
2022/12/09 06:45:48;;;;;;;73.38;40.22;;;;;;;;;;4846557;29;20121;-92
2022/12/09 06:48:14;;;;;;;75.60;39.55;;;;;;;;;;4848148;29;20078;-93
2022/12/09 06:50:40;;;;;;;61.47;37.22;;;;;;;;;;4846717;29;20044;-93
2022/12/09 06:53:07;;;;;;;75.22;41.33;;;;;;;;;;4847476;29;20026;-93
2022/12/09 06:55:33;;;;;;;62.90;37.05;;;;;;;;;;4851322;29;20037;-93
2022/12/09 06:57:59;;;;;;;86.88;44.70;;;;;;;;;;4846829;29;20032;-93
2022/12/09 07:00:25;;;;;;;76.80;41.83;;;;;;;;;;4849162;29;20029;-92
2022/12/09 07:02:52;;;;;;;84.15;43.67;;;;;;;;;;4846258;29;20394;-95
2022/12/09 07:05:19;;;;;;;62.40;37.33;;;;;;;;;;4847623;29;20033;-95
2022/12/09 07:07:49;;;;;;;72.13;41.08;;;;;;;;;;4847248;29;20546;-95
2022/12/09 07:10:16;;;;;;;87.32;43.83;;;;;;;;;;4847853;29;20041;-96
2022/12/09 07:12:42;;;;;;;85.28;43.05;;;;;;;;;;4847198;29;20025;-96
2022/12/09 07:15:08;;;;;;;78.97;41.97;;;;;;;;;;4846802;29;20081;-91
2022/12/09 07:17:38;;;;;;;73.03;38.10;;;;;;;;;;4854743;29;20029;-94
2022/12/09 07:20:07;;;;;;;65.28;38.28;;;;;;;;;;4860936;29;20041;-93
2022/12/09 07:22:33;;;;;;;77.53;40.97;;;;;;;;;;4845717;29;20026;-92
2022/12/09 07:25:00;;;;;;;70.00;39.25;;;;;;;;;;4855305;29;20037;-92
2022/12/09 07:27:31;;;;;;;74.55;41.03;;;;;;;;;;4848347;29;20026;-95
2022/12/09 07:29:57;;;;;;;88.47;43.72;;;;;;;;;;4845113;29;20030;-92
2022/12/09 07:32:23;;;;;;;79.88;42.45;;;;;;;;;;4846681;29;20058;-93
2022/12/09 07:34:50;;;;;;;68.95;38.15;;;;;;;;;;4845665;29;20403;-93
2022/12/09 07:37:16;;;;;;;81.15;41.00;;;;;;;;;;4846886;29;20101;-90
2022/12/09 07:39:45;;;;;;;89.53;45.63;;;;;;;;;;4848952;29;20057;-93
2022/12/09 07:42:11;;;;;;;61.22;37.90;;;;;;;;;;4847283;29;20033;-90
2022/12/09 07:44:37;;;;;;;63.05;35.50;;;;;;;;;;4845301;29;20030;-90
2022/12/09 07:47:03;;;;;;;71.95;39.00;;;;;;;;;;4846807;29;20033;-94
2022/12/09 07:49:29;;;;;;;93.25;47.83;;;;;;;;;;4848300;29;20033;-93
2022/12/09 07:51:56;;;;;;;82.75;43.03;;;;;;;;;;4854930;29;20036;-91
2022/12/09 07:54:24;;;;;;;74.38;40.22;;;;;;;;;;4856970;29;20041;-89
2022/12/09 07:56:50;;;;;;;102.25;50.03;;;;;;;;;;4849153;29;20539;-91
2022/12/09 07:59:16;;;;;;;93.13;47.28;;;;;;;;;;4847246;29;20491;-92
2022/12/09 08:01:45;;;;;;;117.22;52.20;;;;;;;;;;4848166;29;20049;-93
2022/12/09 08:04:17;;;;;;;75.47;43.05;;;;;;;;;;4852139;29;20064;-90
2022/12/09 08:06:43;;;;;;;103.00;49.72;;;;;;;;;;4854972;29;20041;-91
2022/12/09 08:09:35;;;;;;;115.25;53.50;;;;;;;;;;4853633;29;20033;-93
2022/12/09 08:21:08;;;;;;;94.55;48.50;;;;;;;;;;4826448;29;20094;-90
2022/12/09 08:23:35;;;;;;;94.03;46.00;;;;;;;;;;4845350;29;20051;-94
2022/12/09 08:26:01;;;;;;;80.53;42.42;;;;;;;;;;4866489;29;20517;-90
2022/12/09 08:28:28;;;;;;;84.72;44.97;;;;;;;;;;4867173;29;20033;-93
2022/12/09 08:30:54;;;;;;;86.88;46.25;;;;;;;;;;4869840;29;20089;-91
2022/12/09 08:33:20;;;;;;;77.45;42.85;;;;;;;;;;4866102;29;20133;-92
2022/12/09 08:35:53;;;;;;;77.57;43.10;;;;;;;;;;4853922;29;20036;-93
2022/12/09 08:38:19;;;;;;;102.00;49.60;;;;;;;;;;4844431;29;20067;-91
2022/12/09 08:40:45;;;;;;;72.18;40.90;;;;;;;;;;4852697;29;20161;-91
2022/12/09 08:43:11;;;;;;;71.00;39.55;;;;;;;;;;4851139;29;20129;-92
2022/12/09 08:45:40;;;;;;;91.18;45.40;;;;;;;;;;4849241;29;20057;-95
2022/12/09 08:48:08;;;;;;;75.63;41.67;;;;;;;;;;4849469;29;20125;-93
2022/12/09 08:50:35;;;;;;;87.95;44.10;;;;;;;;;;4850161;29;20165;-93
2022/12/09 08:53:11;;;;;;;72.18;38.67;;;;;;;;;;4849338;29;20030;-92
2022/12/09 08:55:38;;;;;;;84.15;41.17;;;;;;;;;;4849951;29;20053;-92
2022/12/09 08:58:11;;;;;;;95.85;47.15;;;;;;;;;;4849855;29;20030;-92
2022/12/09 09:00:58;;;;;;;77.25;39.92;;;;;;;;;;4854734;29;20034;-92
2022/12/09 09:03:27;;;;;;;100.13;47.20;;;;;;;;;;4851938;29;20044;-93
2022/12/09 09:06:02;;;;;;;95.40;45.15;;;;;;;;;;4854162;29;20030;-92
2022/12/09 09:08:28;;;;;;;95.22;45.85;;;;;;;;;;4854172;29;20053;-93
2022/12/09 09:10:54;;;;;;;85.00;43.00;;;;;;;;;;4850286;29;20053;-93
2022/12/09 09:13:21;;;;;;;87.85;43.85;;;;;;;;;;4848268;29;20120;-92
2022/12/09 09:15:50;;;;;;;97.75;46.65;;;;;;;;;;4832612;29;20045;-92
2022/12/09 09:18:17;;;;;;;100.50;47.03;;;;;;;;;;4848056;29;20034;-93
2022/12/09 09:20:47;;;;;;;87.43;43.42;;;;;;;;;;4846410;29;20157;-91
2022/12/09 09:23:14;;;;;;;88.30;43.00;;;;;;;;;;4846300;29;20061;-93
2022/12/09 09:25:45;;;;;;;108.05;48.25;;;;;;;;;;4845211;29;20035;-94
2022/12/09 09:28:11;;;;;;;133.15;53.13;;;;;;;;;;4844503;29;20394;-90
2022/12/09 09:30:42;;;;;;;79.90;40.97;;;;;;;;;;4846009;29;20100;-94
2022/12/09 09:33:08;;;;;;;122.85;52.95;;;;;;;;;;4846091;29;20029;-92
2022/12/09 09:35:35;;;;;;;92.00;44.95;;;;;;;;;;4845944;29;20037;-92
2022/12/09 09:38:02;;;;;;;100.13;45.00;;;;;;;;;;4840724;29;20131;-93
2022/12/09 09:40:28;;;;;;;82.20;42.22;;;;;;;;;;4840567;29;20033;-93
2022/12/09 09:42:57;;;;;;;106.65;45.92;;;;;;;;;;4840741;29;20034;-93
2022/12/09 09:45:23;;;;;;;89.05;43.25;;;;;;;;;;4842089;29;20045;-93
2022/12/09 09:47:54;;;;;;;115.82;48.88;;;;;;;;;;4841288;29;20029;-91
2022/12/09 09:50:30;;;;;;;96.95;44.58;;;;;;;;;;4839931;29;20451;-92
2022/12/09 09:52:56;;;;;;;77.13;39.95;;;;;;;;;;4840279;29;20379;-90
2022/12/09 09:55:33;;;;;;;84.15;41.90;;;;;;;;;;4840262;29;20033;-93
2022/12/09 09:58:28;;;;;;;98.00;42.97;;;;;;;;;;4840985;29;20025;-92
2022/12/09 10:01:14;;;;;;;105.03;46.78;;;;;;;;;;4837633;29;20046;-90
2022/12/09 10:03:43;;;;;;;116.15;52.65;;;;;;;;;;4848149;29;20030;-89
2022/12/09 10:06:32;;;;;;;93.00;44.10;;;;;;;;;;4853708;29;20041;-89
2022/12/09 10:09:07;;;;;;;100.30;46.17;;;;;;;;;;4843834;29;20077;-91
2022/12/09 10:11:38;;;;;;;87.15;43.15;;;;;;;;;;4842577;29;20050;-91
2022/12/09 10:14:16;;;;;;;97.00;46.42;;;;;;;;;;4841774;29;20030;-91
2022/12/09 10:16:59;;;;;;;99.30;43.72;;;;;;;;;;4841609;29;20026;-91
2022/12/09 10:19:34;;;;;;;105.65;45.58;;;;;;;;;;4841213;29;20517;-91
2022/12/09 10:22:15;;;;;;;81.18;39.60;;;;;;;;;;4839510;29;20044;-91
2022/12/09 10:30:50;;;;;;;89.63;40.75;;;;;;;;;;4864259;29;20109;-92
2022/12/09 10:33:17;;;;;;;73.95;38.30;;;;;;;;;;4860751;29;20030;-95
2022/12/09 10:35:44;;;;;;;76.82;38.05;;;;;;;;;;4863135;29;20033;-94
2022/12/09 10:38:12;;;;;;;75.90;38.75;;;;;;;;;;4863299;29;20091;-91
2022/12/09 10:40:51;;;;;;;64.45;35.20;;;;;;;;;;4863989;29;20034;-92
2022/12/09 10:46:23;;;;;;;61.72;34.13;;;;;;;;;;4849298;29;20380;-92
2022/12/09 10:48:49;;;;;;;59.65;32.83;;;;;;;;;;4849111;29;20049;-90
2022/12/09 10:51:29;;;;;;;61.75;34.85;;;;;;;;;;4849411;29;20037;-94
2022/12/09 10:53:57;;;;;;;69.85;35.75;;;;;;;;;;4847230;29;20497;-94
2022/12/09 10:59:30;;;;;;;66.23;34.33;;;;;;;;;;4848797;29;20097;-93
2022/12/09 11:05:17;;;;;;;76.03;35.17;;;;;;;;;;4847894;29;20069;-91
2022/12/09 11:07:46;;;;;;;85.97;40.78;;;;;;;;;;4844586;29;20030;-91
2022/12/09 11:11:23;;;;;;;62.58;34.22;;;;;;;;;;4847377;29;20052;-93
2022/12/09 11:13:28;;;;;;;82.05;39.70;;;;;;;;;;4823462;29;20552;-92
2022/12/09 11:15:58;;;;;;;61.97;34.20;;;;;;;;;;4827670;29;20037;-94
2022/12/09 11:18:46;;;;;;;65.72;35.83;;;;;;;;;;4864942;29;20041;-91
2022/12/09 11:21:30;;;;;;;75.22;37.83;;;;;;;;;;4844581;29;20038;-90
2022/12/09 11:23:56;;;;;;;61.42;32.50;;;;;;;;;;4844712;29;20037;-93
2022/12/09 11:26:23;;;;;;;73.63;36.95;;;;;;;;;;4844121;29;20126;-90
2022/12/09 11:28:59;;;;;;;89.90;40.42;;;;;;;;;;4845064;29;20045;-93
2022/12/09 11:31:27;;;;;;;82.35;39.22;;;;;;;;;;4843837;29;20457;-91
2022/12/09 11:33:54;;;;;;;78.90;39.70;;;;;;;;;;4843974;29;20026;-93
2022/12/09 11:36:22;;;;;;;78.95;39.55;;;;;;;;;;4844429;29;20485;-92
2022/12/09 11:38:49;;;;;;;59.78;32.75;;;;;;;;;;4844315;29;20058;-92
2022/12/09 11:44:49;;;;;;;81.22;39.72;;;;;;;;;;4849395;29;20098;-91
2022/12/09 11:47:26;;;;;;;63.08;34.03;;;;;;;;;;4844457;29;20128;-90
2022/12/09 11:49:57;;;;;;;77.97;37.00;;;;;;;;;;4844305;29;20026;-93
2022/12/09 11:52:29;;;;;;;62.33;33.45;;;;;;;;;;4845470;29;20488;-92
2022/12/09 11:54:56;;;;;;;65.85;35.33;;;;;;;;;;4846087;29;20121;-92
2022/12/09 11:57:51;;;;;;;62.13;32.28;;;;;;;;;;4850770;29;20045;-93
2022/12/09 12:00:30;;;;;;;55.47;30.83;;;;;;;;;;4848676;29;20037;-91
2022/12/09 12:03:15;;;;;;;64.95;33.38;;;;;;;;;;4848856;29;20034;-90
2022/12/09 12:12:14;;;;;;;57.50;31.42;;;;;;;;;;4876106;23;20059;-93
2022/12/09 12:14:53;;;;;;;65.03;33.50;;;;;;;;;;4849315;29;20045;-95
2022/12/09 12:17:33;;;;;;;63.22;32.97;;;;;;;;;;4853756;29;20025;-95
2022/12/09 12:19:59;;;;;;;62.25;32.75;;;;;;;;;;4847571;29;20058;-92
2022/12/09 12:25:48;;;;;;;65.00;33.53;;;;;;;;;;4866511;29;20076;-92
2022/12/09 12:28:17;;;;;;;51.15;29.10;;;;;;;;;;4846249;29;20037;-91
2022/12/09 12:30:43;;;;;;;52.75;30.88;;;;;;;;;;4846402;29;20505;-93
2022/12/09 12:33:30;;;;;;;65.22;34.60;;;;;;;;;;4847837;29;20075;-94
2022/12/09 12:35:56;;;;;;;71.13;36.67;;;;;;;;;;4846714;29;20026;-92
2022/12/09 12:38:28;;;;;;;57.60;32.47;;;;;;;;;;4861629;29;20141;-95
2022/12/09 12:41:14;;;;;;;53.65;30.52;;;;;;;;;;4846484;29;20034;-94
2022/12/09 12:46:45;;;;;;;45.50;26.05;;;;;;;;;;4844634;29;20057;-92
2022/12/09 12:49:30;;;;;;;53.88;31.15;;;;;;;;;;4843390;29;20040;-91
2022/12/09 12:52:17;;;;;;;58.33;31.08;;;;;;;;;;4847091;29;20046;-92
2022/12/09 12:55:02;;;;;;;40.53;25.02;;;;;;;;;;4862006;29;20042;-93
2022/12/09 12:57:44;;;;;;;47.42;27.35;;;;;;;;;;4845881;29;20030;-93
2022/12/09 13:00:16;;;;;;;46.47;26.33;;;;;;;;;;4845751;29;20037;-94
2022/12/09 13:03:01;;;;;;;36.80;22.70;;;;;;;;;;4845990;29;20064;-94
2022/12/09 13:05:29;;;;;;;42.10;25.85;;;;;;;;;;4848017;29;20033;-91
2022/12/09 13:08:01;;;;;;;50.35;27.60;;;;;;;;;;4865598;29;20092;-92
2022/12/09 13:10:38;;;;;;;47.75;27.52;;;;;;;;;;4864817;29;20141;-92
2022/12/09 13:13:05;;;;;;;57.17;29.17;;;;;;;;;;4865483;29;20077;-94
2022/12/09 13:15:45;;;;;;;59.05;29.92;;;;;;;;;;4861045;29;20128;-94
2022/12/09 13:18:14;;;;;;;37.45;23.17;;;;;;;;;;4863754;29;20037;-92
2022/12/09 13:20:40;;;;;;;52.35;28.63;;;;;;;;;;4846382;29;20044;-92
2022/12/09 13:23:12;;;;;;;38.08;23.50;;;;;;;;;;4846069;29;20034;-93
2022/12/09 13:25:44;;;;;;;31.65;20.02;;;;;;;;;;4848160;29;20056;-93
2022/12/09 13:28:20;;;;;;;35.58;21.48;;;;;;;;;;4854222;29;20033;-91
2022/12/09 13:31:12;;;;;;;40.78;24.05;;;;;;;;;;4847613;29;20144;-90
2022/12/09 13:33:52;;;;;;;22.33;15.88;;;;;;;;;;4846854;29;20038;-91
2022/12/09 13:36:21;;;;;;;27.90;16.90;;;;;;;;;;4847504;29;20120;-90
2022/12/09 13:38:47;;;;;;;31.00;20.98;;;;;;;;;;4850219;29;20152;-93
2022/12/09 13:41:29;;;;;;;29.83;18.75;;;;;;;;;;4848975;29;20041;-92
2022/12/09 13:57:41;;;;;;;29.45;18.90;;;;;;;;;;4859296;29;20052;-95
2022/12/09 14:00:20;;;;;;;37.55;22.45;;;;;;;;;;4842638;29;20487;-93
2022/12/09 14:03:12;;;;;;;39.40;22.65;;;;;;;;;;4835947;29;20053;-95
2022/12/09 14:16:27;;;;;;;33.15;19.75;;;;;;;;;;5181160;23;20052;-94
2022/12/09 16:06:36;;;;;;;24.25;16.63;;;;;;;;;;2552008;23;20331;-94
2022/12/09 16:09:19;;;;;;;26.98;18.27;;;;;;;;;;4980594;23;20057;-94
2022/12/09 16:14:59;;;;;;;32.70;20.37;;;;;;;;;;4912741;29;20500;-94
2022/12/09 16:17:57;;;;;;;24.48;17.52;;;;;;;;;;4909905;29;20104;-96
2022/12/09 16:20:56;;;;;;;25.13;17.05;;;;;;;;;;4905686;29;20048;-95
2022/12/09 16:34:44;;;;;;;;;;;;;;;;;;;;;
2022/12/09 16:40:20;;;;;;;32.70;21.00;;;;;;;;;;4870089;29;20086;-95
2022/12/09 16:42:52;;;;;;;24.90;17.20;;;;;;;;;;4853597;29;20045;-96
2022/12/09 16:45:20;;;;;;;28.00;20.00;;;;;;;;;;4878434;29;20026;-93
2022/12/09 16:50:45;;;;;;;26.67;19.02;;;;;;;;;;4872331;29;20443;-96
2022/12/09 16:53:53;;;;;;;28.17;19.95;;;;;;;;;;4854388;29;20048;-92
2022/12/09 16:59:35;;;;;;;36.45;22.10;;;;;;;;;;4941058;23;20123;-94
2022/12/09 17:02:25;;;;;;;36.50;24.60;;;;;;;;;;4859075;29;20105;-94
2022/12/09 17:05:04;;;;;;;36.65;23.95;;;;;;;;;;4859822;29;20029;-94
2022/12/09 17:07:33;;;;;;;30.67;21.27;;;;;;;;;;4857979;29;20105;-95
2022/12/09 17:10:08;;;;;;;38.92;26.10;;;;;;;;;;4864797;29;20101;-94
2022/12/09 17:12:36;;;;;;;35.75;24.40;;;;;;;;;;4847518;29;20101;-94
2022/12/09 17:15:27;;;;;;;;;;;;;;;;;;;;;
2022/12/09 17:18:20;;;;;;;38.47;25.38;;;;;;;;;;4868418;29;20112;-94
2022/12/09 17:21:08;;;;;;;35.45;24.25;;;;;;;;;;4866102;29;20695;-96
2022/12/09 17:26:47;;;;;;;40.75;25.27;;;;;;;;;;4844308;29;20044;-94
2022/12/09 17:29:19;;;;;;;42.05;26.98;;;;;;;;;;4847110;29;20037;-95
2022/12/09 17:31:58;;;;;;;;;;;;;;;;;;;;;
2022/12/09 17:34:25;;;;;;;36.00;24.00;;;;;;;;;;4867628;29;20077;-93
2022/12/09 17:36:53;;;;;;;35.92;24.30;;;;;;;;;;4849249;29;20559;-92
2022/12/09 17:39:20;;;;;;;33.00;22.67;;;;;;;;;;4849341;29;20094;-93
2022/12/09 17:41:48;;;;;;;39.42;25.02;;;;;;;;;;4846952;29;20093;-96
2022/12/09 17:44:19;;;;;;;48.17;30.10;;;;;;;;;;4853018;29;20033;-95
2022/12/09 17:47:15;;;;;;;44.97;28.15;;;;;;;;;;4857077;29;20120;-94
2022/12/09 17:50:01;;;;;;;33.20;22.92;;;;;;;;;;4847290;29;20033;-96
2022/12/09 17:52:27;;;;;;;39.33;25.17;;;;;;;;;;4851183;29;20034;-94
2022/12/09 17:54:53;;;;;;;36.50;24.25;;;;;;;;;;4852284;29;20097;-94
2022/12/09 17:57:20;;;;;;;44.50;27.83;;;;;;;;;;4853128;29;20041;-90
2022/12/09 17:59:47;;;;;;;41.80;27.17;;;;;;;;;;4852502;29;20156;-91
2022/12/09 18:02:13;;;;;;;40.17;26.13;;;;;;;;;;4851117;29;20124;-94
2022/12/09 18:04:39;;;;;;;32.30;22.50;;;;;;;;;;4848667;29;20570;-94
2022/12/09 18:07:32;;;;;;;39.78;25.95;;;;;;;;;;4844935;29;20039;-96
2022/12/09 18:09:59;;;;;;;32.40;21.05;;;;;;;;;;4835891;29;20033;-94
2022/12/09 18:12:25;;;;;;;35.15;23.67;;;;;;;;;;4837917;29;20046;-95
2022/12/09 18:14:51;;;;;;;36.83;24.27;;;;;;;;;;4829450;29;20034;-90
2022/12/09 18:17:18;;;;;;;31.95;21.30;;;;;;;;;;4859937;29;20035;-95
2022/12/09 18:19:46;;;;;;;37.08;23.92;;;;;;;;;;4829529;29;20517;-95
2022/12/09 18:22:13;;;;;;;34.20;23.10;;;;;;;;;;4840643;29;20398;-92
2022/12/09 18:24:39;;;;;;;31.10;21.15;;;;;;;;;;4842960;29;20030;-95
2022/12/09 18:27:06;;;;;;;35.63;23.90;;;;;;;;;;4838270;29;20083;-93
2022/12/09 18:29:36;;;;;;;33.35;21.73;;;;;;;;;;4862777;29;20131;-91
2022/12/09 18:32:05;;;;;;;38.03;24.15;;;;;;;;;;4849365;29;20034;-94
2022/12/09 18:34:31;;;;;;;26.58;17.55;;;;;;;;;;4847192;29;20030;-89
2022/12/09 18:40:01;;;;;;;18.67;14.02;;;;;;;;;;4847792;29;20084;-90
2022/12/09 18:42:27;;;;;;;18.70;13.70;;;;;;;;;;4851572;29;20026;-90
2022/12/09 18:57:46;;;;;;;19.75;14.10;;;;;;;;;;4867897;29;20065;-92
2022/12/09 19:00:12;;;;;;;28.83;19.60;;;;;;;;;;4873563;29;20028;-95
2022/12/09 19:02:44;;;;;;;27.23;18.25;;;;;;;;;;4836901;29;20029;-93
2022/12/09 19:05:10;;;;;;;23.35;16.75;;;;;;;;;;4864768;29;20040;-94
2022/12/09 19:07:37;;;;;;;26.15;17.90;;;;;;;;;;4864732;29;20034;-96
2022/12/09 19:10:04;;;;;;;28.02;19.00;;;;;;;;;;4864700;29;20060;-94
2022/12/09 19:12:30;;;;;;;19.98;14.55;;;;;;;;;;4863839;29;20120;-94
2022/12/09 19:14:56;;;;;;;28.02;18.80;;;;;;;;;;4864804;29;20141;-93
2022/12/09 19:17:23;;;;;;;23.50;16.73;;;;;;;;;;4867325;29;20029;-92
2022/12/09 19:23:09;;;;;;;23.13;16.67;;;;;;;;;;4875031;29;20043;-92